createdAt,value
2017-07-06T00:00:20.173Z,18.20
2017-07-06T00:02:48.571Z,18.10
2017-07-06T00:05:16.984Z,18.10
2017-07-06T00:07:44.712Z,18.10
2017-07-06T00:10:13.101Z,18.10
2017-07-06T00:12:41.548Z,18.00
2017-07-06T00:15:09.947Z,17.90
2017-07-06T00:17:38.351Z,18.00
2017-07-06T00:20:06.890Z,18.00
2017-07-06T00:22:35.287Z,18.00
2017-07-06T00:25:03.688Z,17.90
2017-07-06T00:27:32.207Z,17.90
2017-07-06T00:30:01.387Z,17.90
2017-07-06T00:32:30.023Z,17.80
2017-07-06T00:34:58.784Z,17.70
2017-07-06T00:37:27.161Z,17.70
2017-07-06T00:39:55.566Z,17.70
2017-07-06T00:42:23.984Z,17.60
2017-07-06T00:44:52.372Z,17.60
2017-07-06T00:47:20.773Z,17.60
2017-07-06T00:49:49.195Z,17.60
2017-07-06T00:52:17.598Z,17.50
2017-07-06T00:54:46.003Z,17.40
2017-07-06T00:57:15.413Z,17.30
2017-07-06T00:59:43.802Z,17.30
2017-07-06T01:02:12.181Z,17.20
2017-07-06T01:04:40.679Z,17.20
2017-07-06T01:07:09.081Z,17.20
2017-07-06T01:09:37.470Z,17.10
2017-07-06T01:12:06.003Z,17.10
2017-07-06T01:14:34.400Z,17.00
2017-07-06T01:17:02.792Z,16.80
2017-07-06T01:19:30.521Z,16.70
2017-07-06T01:21:59.016Z,16.80
2017-07-06T01:24:27.390Z,16.80
2017-07-06T01:26:55.812Z,16.90
2017-07-06T01:29:24.201Z,16.90
2017-07-06T01:31:52.593Z,16.90
2017-07-06T01:34:21.772Z,16.80
2017-07-06T01:36:50.202Z,16.80
2017-07-06T01:39:18.598Z,16.70
2017-07-06T01:41:47.230Z,16.70
2017-07-06T01:44:16.047Z,16.60
2017-07-06T01:46:44.446Z,16.60
2017-07-06T01:49:12.646Z,16.70
2017-07-06T01:51:41.057Z,16.60
2017-07-06T01:54:09.454Z,16.60
2017-07-06T01:56:37.190Z,16.50
2017-07-06T01:59:06.000Z,16.50
2017-07-06T02:01:34.057Z,16.50
2017-07-06T02:04:02.776Z,16.50
2017-07-06T02:06:31.182Z,16.40
2017-07-06T02:08:59.573Z,16.40
2017-07-06T02:11:27.980Z,16.40
2017-07-06T02:13:56.373Z,16.30
2017-07-06T02:16:24.775Z,16.20
2017-07-06T02:18:53.316Z,16.20
2017-07-06T02:21:21.703Z,16.20
2017-07-06T02:23:50.107Z,16.10
2017-07-06T02:26:19.398Z,16.20
2017-07-06T02:28:47.799Z,16.20
2017-07-06T02:31:16.253Z,16.30
2017-07-06T02:33:44.895Z,16.20
2017-07-06T02:36:14.049Z,16.10
2017-07-06T02:38:42.433Z,16.10
2017-07-06T02:41:11.821Z,16.10
2017-07-06T02:43:39.889Z,16.10
2017-07-06T02:46:08.287Z,16.10
2017-07-06T02:48:37.248Z,16.00
2017-07-06T02:51:05.649Z,16.00
2017-07-06T02:53:34.041Z,15.90
2017-07-06T02:56:02.637Z,15.60
2017-07-06T02:58:31.027Z,15.60
2017-07-06T03:01:00.205Z,15.70
2017-07-06T03:03:28.708Z,15.70
2017-07-06T03:05:57.785Z,15.80
2017-07-06T03:08:26.184Z,15.70
2017-07-06T03:10:55.593Z,15.70
2017-07-06T03:13:24.763Z,15.70
2017-07-06T03:15:53.156Z,15.70
2017-07-06T03:18:21.756Z,15.60
2017-07-06T03:20:50.130Z,15.70
2017-07-06T03:23:19.287Z,15.60
2017-07-06T03:25:47.729Z,15.60
2017-07-06T03:28:15.777Z,15.60
2017-07-06T03:30:44.197Z,15.60
2017-07-06T03:33:13.051Z,15.50
2017-07-06T03:35:41.534Z,15.40
2017-07-06T03:38:09.959Z,15.40
2017-07-06T03:40:38.385Z,15.40
2017-07-06T03:43:06.798Z,15.40
2017-07-06T03:45:35.191Z,15.40
2017-07-06T03:48:03.820Z,15.40
2017-07-06T03:50:32.974Z,15.30
2017-07-06T03:53:01.359Z,15.20
2017-07-06T03:55:29.670Z,15.20
2017-07-06T03:57:58.827Z,15.40
2017-07-06T04:00:27.239Z,15.40
2017-07-06T04:02:56.353Z,15.50
2017-07-06T04:05:24.752Z,15.60
2017-07-06T04:07:52.800Z,15.70
2017-07-06T04:10:21.396Z,15.70
2017-07-06T04:12:49.774Z,15.70
2017-07-06T04:15:18.183Z,15.80
2017-07-06T04:17:46.823Z,15.80
2017-07-06T04:20:15.212Z,15.80
2017-07-06T04:22:43.626Z,15.80
2017-07-06T04:25:12.052Z,15.80
2017-07-06T04:27:41.222Z,16.00
2017-07-06T04:30:09.625Z,16.00
2017-07-06T04:32:38.930Z,16.20
2017-07-06T04:35:08.086Z,16.30
2017-07-06T04:37:36.474Z,16.30
2017-07-06T04:40:04.971Z,16.40
2017-07-06T04:42:34.140Z,16.60
2017-07-06T04:45:01.845Z,16.60
2017-07-06T04:47:30.406Z,16.70
2017-07-06T04:49:59.560Z,16.90
2017-07-06T04:52:27.959Z,16.90
2017-07-06T04:54:56.490Z,17.10
2017-07-06T04:57:24.903Z,17.20
2017-07-06T04:59:53.296Z,17.20
2017-07-06T05:02:22.122Z,17.40
2017-07-06T05:04:55.391Z,17.60
2017-07-06T05:07:24.486Z,17.60
2017-07-06T05:09:52.901Z,17.90
2017-07-06T05:12:21.292Z,18.10
2017-07-06T05:14:49.877Z,18.30
2017-07-06T05:17:18.298Z,18.40
2017-07-06T05:19:46.717Z,18.50
2017-07-06T05:22:15.119Z,18.60
2017-07-06T05:24:43.513Z,18.70
2017-07-06T05:27:11.931Z,18.90
2017-07-06T05:29:41.143Z,19.10
2017-07-06T05:32:09.571Z,19.10
2017-07-06T05:34:38.990Z,19.50
2017-07-06T05:37:07.396Z,19.50
2017-07-06T05:39:35.823Z,19.80
2017-07-06T05:42:04.285Z,20.00
2017-07-06T05:44:32.680Z,20.20
2017-07-06T05:47:01.087Z,20.40
2017-07-06T05:49:29.519Z,20.60
2017-07-06T05:51:57.919Z,21.00
2017-07-06T05:54:26.336Z,21.40
2017-07-06T05:56:54.746Z,21.80
2017-07-06T05:59:23.134Z,22.20
2017-07-06T06:01:51.349Z,22.20
2017-07-06T06:04:19.785Z,22.30
2017-07-06T06:06:48.183Z,22.50
2017-07-06T06:09:16.572Z,22.50
2017-07-06T06:11:45.013Z,22.30
2017-07-06T06:14:13.395Z,22.20
2017-07-06T06:16:41.814Z,22.30
2017-07-06T06:19:10.233Z,22.50
2017-07-06T06:21:39.401Z,23.10
2017-07-06T06:24:07.789Z,23.10
2017-07-06T06:26:37.033Z,23.70
2017-07-06T06:29:05.439Z,23.70
2017-07-06T06:31:33.840Z,23.50
2017-07-06T06:34:02.306Z,23.20
2017-07-06T06:36:30.710Z,23.50
2017-07-06T06:38:59.907Z,24.00
2017-07-06T06:41:29.147Z,24.20
2017-07-06T06:43:57.551Z,24.20
2017-07-06T06:46:25.970Z,24.40
2017-07-06T06:48:54.381Z,24.50
2017-07-06T06:51:22.784Z,24.70
2017-07-06T06:53:51.175Z,24.80
2017-07-06T06:56:19.594Z,24.80
2017-07-06T06:58:48.035Z,25.00
2017-07-06T07:01:16.428Z,25.30
2017-07-06T07:03:45.240Z,25.30
2017-07-06T07:06:13.646Z,25.40
2017-07-06T07:08:42.046Z,25.70
2017-07-06T07:11:10.123Z,25.90
2017-07-06T07:13:38.527Z,26.00
2017-07-06T07:16:07.682Z,26.40
2017-07-06T07:18:36.085Z,26.40
2017-07-06T07:21:04.499Z,26.70
2017-07-06T07:23:32.926Z,26.60
2017-07-06T07:26:01.342Z,26.90
2017-07-06T07:28:29.749Z,26.80
2017-07-06T07:30:58.154Z,26.60
2017-07-06T07:33:26.569Z,26.00
2017-07-06T07:35:55.758Z,25.70
2017-07-06T07:38:24.165Z,25.70
2017-07-06T07:40:52.221Z,25.80
2017-07-06T07:43:21.393Z,26.00
2017-07-06T07:45:49.795Z,26.00
2017-07-06T07:48:18.966Z,26.30
2017-07-06T07:50:47.370Z,26.30
2017-07-06T07:53:16.548Z,26.10
2017-07-06T07:55:45.005Z,26.10
2017-07-06T07:58:13.393Z,25.30
2017-07-06T08:00:41.813Z,24.40
2017-07-06T08:03:11.037Z,24.70
2017-07-06T08:05:39.430Z,24.70
2017-07-06T08:08:07.836Z,24.30
2017-07-06T08:10:36.247Z,24.70
2017-07-06T08:13:04.641Z,24.40
2017-07-06T08:15:33.033Z,24.00
2017-07-06T08:18:01.459Z,24.10
2017-07-06T08:20:30.619Z,23.30
2017-07-06T08:22:59.024Z,23.30
2017-07-06T08:25:27.487Z,23.20
2017-07-06T08:27:55.877Z,23.30
2017-07-06T08:30:24.274Z,23.70
2017-07-06T08:32:53.451Z,23.70
2017-07-06T08:35:21.683Z,23.70
2017-07-06T08:37:50.108Z,23.60
2017-07-06T08:40:18.514Z,23.60
2017-07-06T08:42:47.682Z,24.70
2017-07-06T08:45:16.309Z,24.60
2017-07-06T08:47:44.729Z,24.60
2017-07-06T08:50:13.150Z,24.60
2017-07-06T08:52:42.316Z,25.30
2017-07-06T08:55:10.734Z,25.30
2017-07-06T08:57:39.134Z,25.80
2017-07-06T09:00:07.530Z,26.70
2017-07-06T09:02:35.942Z,27.60
2017-07-06T09:05:04.332Z,26.70
2017-07-06T09:07:33.496Z,26.10
2017-07-06T09:10:01.928Z,26.10
2017-07-06T09:12:30.327Z,27.00
2017-07-06T09:14:58.742Z,27.70
2017-07-06T09:17:27.171Z,28.20
2017-07-06T09:19:55.574Z,28.50
2017-07-06T09:22:24.119Z,26.70
2017-07-06T09:24:53.306Z,26.80
2017-07-06T09:27:22.477Z,27.70
2017-07-06T09:29:50.861Z,27.70
2017-07-06T09:32:19.268Z,28.50
2017-07-06T09:34:47.680Z,28.60
2017-07-06T09:37:16.084Z,29.10
2017-07-06T09:39:44.547Z,29.50
2017-07-06T09:42:12.945Z,30.10
2017-07-06T09:44:41.363Z,30.50
2017-07-06T09:47:09.774Z,30.60
2017-07-06T09:49:38.179Z,30.50
2017-07-06T09:52:06.587Z,30.60
2017-07-06T09:54:35.780Z,30.20
2017-07-06T09:57:04.958Z,30.50
2017-07-06T09:59:33.347Z,30.40
2017-07-06T10:02:01.848Z,30.60
2017-07-06T10:04:31.009Z,30.00
2017-07-06T10:06:59.396Z,29.90
2017-07-06T10:09:27.802Z,28.30
2017-07-06T10:11:56.041Z,27.00
2017-07-06T10:14:24.415Z,27.20
2017-07-06T10:16:52.830Z,27.70
2017-07-06T10:19:21.224Z,28.10
2017-07-06T10:21:49.286Z,28.60
2017-07-06T10:24:17.691Z,28.90
2017-07-06T10:26:46.077Z,29.20
2017-07-06T10:29:14.483Z,29.20
2017-07-06T10:31:42.922Z,29.30
2017-07-06T10:34:11.314Z,29.30
2017-07-06T10:36:39.702Z,29.30
2017-07-06T10:39:08.125Z,29.40
2017-07-06T10:41:37.291Z,27.50
2017-07-06T10:44:05.682Z,27.50
2017-07-06T10:46:34.115Z,27.90
2017-07-06T10:49:02.523Z,27.70
2017-07-06T10:51:30.927Z,27.80
2017-07-06T10:54:00.108Z,28.60
2017-07-06T10:56:28.507Z,28.50
2017-07-06T10:58:57.669Z,29.10
2017-07-06T11:01:26.090Z,29.10
2017-07-06T11:03:54.515Z,28.10
2017-07-06T11:06:22.908Z,28.30
2017-07-06T11:08:51.332Z,29.00
2017-07-06T11:11:19.768Z,29.30
2017-07-06T11:13:48.172Z,29.80
2017-07-06T11:16:17.360Z,28.90
2017-07-06T11:18:45.749Z,28.90
2017-07-06T11:21:14.926Z,29.70
2017-07-06T11:23:43.346Z,29.70
2017-07-06T11:26:11.794Z,29.70
2017-07-06T11:28:40.968Z,29.60
2017-07-06T11:31:09.402Z,29.60
2017-07-06T11:33:37.838Z,29.20
2017-07-06T11:36:07.028Z,29.50
2017-07-06T11:38:35.464Z,29.50
2017-07-06T11:41:03.878Z,29.60
2017-07-06T11:43:31.922Z,30.10
2017-07-06T11:46:00.338Z,30.30
2017-07-06T11:48:28.879Z,29.90
2017-07-06T11:50:57.283Z,29.70
2017-07-06T11:53:25.697Z,30.40
2017-07-06T11:55:54.096Z,30.90
2017-07-06T11:58:22.514Z,31.50
2017-07-06T12:00:50.996Z,32.30
2017-07-06T12:03:19.440Z,32.80
2017-07-06T12:05:47.844Z,32.90
2017-07-06T12:08:16.278Z,33.00
2017-07-06T12:10:44.698Z,31.10
2017-07-06T12:13:13.113Z,30.00
2017-07-06T12:15:42.307Z,29.70
2017-07-06T12:18:10.787Z,29.70
2017-07-06T12:20:39.203Z,29.50
2017-07-06T12:23:07.622Z,29.50
2017-07-06T12:25:36.022Z,29.80
2017-07-06T12:28:04.416Z,30.10
2017-07-06T12:30:33.617Z,29.60
2017-07-06T12:33:02.022Z,29.60
2017-07-06T12:35:30.418Z,30.10
2017-07-06T12:37:58.817Z,30.60
2017-07-06T12:40:27.215Z,29.70
2017-07-06T12:42:55.610Z,29.70
2017-07-06T12:45:24.620Z,29.40
2017-07-06T12:47:52.326Z,29.40
2017-07-06T12:50:20.726Z,29.20
2017-07-06T12:52:49.146Z,29.30
2017-07-06T12:55:17.520Z,29.20
2017-07-06T12:57:45.934Z,29.00
2017-07-06T13:00:14.346Z,28.90
2017-07-06T13:02:42.741Z,28.90
2017-07-06T13:05:11.166Z,28.90
2017-07-06T13:07:39.590Z,28.80
2017-07-06T13:10:08.745Z,28.10
2017-07-06T13:12:37.558Z,28.10
2017-07-06T13:15:05.974Z,27.90
2017-07-06T13:17:34.400Z,27.80
2017-07-06T13:20:02.797Z,27.70
2017-07-06T13:22:31.220Z,27.60
2017-07-06T13:24:59.649Z,27.50
2017-07-06T13:29:56.498Z,27.50
2017-07-06T13:32:25.742Z,26.30
2017-07-06T13:34:54.162Z,26.20
2017-07-06T13:37:22.575Z,24.30
2017-07-06T13:39:50.985Z,22.50
2017-07-06T13:42:19.382Z,21.40
2017-07-06T13:44:47.802Z,20.50
2017-07-06T13:47:16.202Z,20.30
2017-07-06T13:49:44.637Z,20.20
2017-07-06T13:52:12.886Z,20.20
2017-07-06T13:54:41.084Z,20.00
2017-07-06T13:57:09.297Z,19.90
2017-07-06T13:59:38.481Z,19.90
2017-07-06T14:02:06.909Z,19.80
2017-07-06T14:04:35.373Z,19.90
2017-07-06T14:07:03.782Z,19.80
2017-07-06T14:09:32.173Z,19.80
2017-07-06T14:11:59.902Z,19.70
2017-07-06T14:14:28.320Z,19.60
2017-07-06T14:16:56.711Z,19.50
2017-07-06T14:19:25.880Z,19.50
2017-07-06T14:21:54.301Z,19.50
2017-07-06T14:24:23.454Z,19.50
2017-07-06T14:26:51.845Z,19.50
2017-07-06T14:29:20.262Z,19.40
2017-07-06T14:31:49.418Z,19.60
2017-07-06T14:34:17.883Z,19.60
2017-07-06T14:36:46.328Z,19.80
2017-07-06T14:39:14.722Z,19.90
2017-07-06T14:41:43.112Z,20.10
2017-07-06T14:44:11.517Z,20.40
2017-07-06T14:46:39.914Z,20.70
2017-07-06T14:49:09.369Z,20.90
2017-07-06T14:51:38.703Z,21.10
2017-07-06T14:54:07.860Z,21.10
2017-07-06T14:56:36.937Z,21.30
2017-07-06T14:59:05.360Z,21.40
2017-07-06T15:01:33.835Z,21.40
2017-07-06T15:04:02.233Z,21.60
2017-07-06T15:06:30.633Z,21.50
2017-07-06T15:08:59.834Z,21.60
2017-07-06T15:11:28.375Z,21.60
2017-07-06T15:13:56.447Z,21.60
2017-07-06T15:16:24.837Z,21.80
2017-07-06T15:18:53.263Z,21.90
2017-07-06T15:21:21.703Z,21.90
2017-07-06T15:23:50.902Z,22.00
2017-07-06T15:26:20.074Z,22.10
2017-07-06T15:28:48.478Z,22.10
2017-07-06T15:31:17.648Z,22.00
2017-07-06T15:33:46.125Z,22.00
2017-07-06T15:36:14.533Z,21.60
2017-07-06T15:38:43.427Z,21.60
2017-07-06T15:41:11.897Z,22.00
2017-07-06T15:43:40.331Z,22.40
2017-07-06T15:46:08.730Z,22.60
2017-07-06T15:48:37.119Z,22.60
2017-07-06T15:51:05.525Z,22.50
2017-07-06T15:53:33.933Z,22.60
2017-07-06T15:56:02.327Z,22.60
2017-07-06T15:58:30.749Z,22.70
2017-07-06T16:00:59.136Z,22.90
2017-07-06T16:03:28.291Z,23.40
2017-07-06T16:05:56.711Z,23.30
2017-07-06T16:08:25.919Z,23.90
2017-07-06T16:10:55.093Z,24.00
2017-07-06T16:13:23.511Z,24.00
2017-07-06T16:15:51.899Z,24.10
2017-07-06T16:18:20.303Z,24.10
2017-07-06T16:20:48.714Z,24.10
2017-07-06T16:23:17.100Z,24.20
2017-07-06T16:25:46.255Z,24.50
2017-07-06T16:28:14.676Z,24.50
2017-07-06T16:30:43.095Z,24.70
2017-07-06T16:33:11.504Z,24.70
2017-07-06T16:35:39.909Z,24.70
2017-07-06T16:38:08.326Z,24.60
2017-07-06T16:40:36.717Z,24.60
2017-07-06T16:43:05.137Z,24.60
2017-07-06T16:45:33.553Z,24.60
2017-07-06T16:48:01.952Z,24.60
2017-07-06T16:50:30.379Z,24.70
2017-07-06T16:52:58.799Z,24.00
2017-07-06T16:55:27.189Z,23.40
2017-07-06T16:57:55.634Z,23.10
2017-07-06T17:00:24.033Z,23.00
2017-07-06T17:02:52.426Z,22.80
2017-07-06T17:05:20.848Z,22.70
2017-07-06T17:07:50.000Z,22.70
2017-07-06T17:10:18.385Z,22.60
2017-07-06T17:12:46.810Z,22.60
2017-07-06T17:15:15.965Z,22.50
2017-07-06T17:17:44.338Z,22.50
2017-07-06T17:20:12.769Z,22.80
2017-07-06T17:22:41.929Z,23.20
2017-07-06T17:25:10.331Z,23.10
2017-07-06T17:27:38.764Z,23.20
2017-07-06T17:30:07.170Z,22.90
2017-07-06T17:32:35.868Z,22.80
2017-07-06T17:35:05.097Z,23.00
2017-07-06T17:37:33.476Z,23.00
2017-07-06T17:40:01.867Z,23.10
2017-07-06T17:42:30.269Z,23.00
2017-07-06T17:44:58.747Z,23.10
2017-07-06T17:47:27.141Z,23.10
2017-07-06T17:49:55.558Z,23.20
2017-07-06T17:52:23.962Z,23.30
2017-07-06T17:54:52.350Z,23.20
2017-07-06T17:57:21.845Z,23.30
2017-07-06T17:59:50.263Z,23.40
2017-07-06T18:02:18.687Z,23.40
2017-07-06T18:04:47.115Z,23.40
2017-07-06T18:07:15.565Z,23.40
2017-07-06T18:09:44.078Z,23.30
2017-07-06T18:12:12.530Z,23.20
2017-07-06T18:14:40.972Z,23.20
2017-07-06T18:17:09.370Z,23.20
2017-07-06T18:19:37.796Z,23.30
2017-07-06T18:22:06.260Z,23.30
2017-07-06T18:24:34.669Z,23.30
2017-07-06T18:27:03.133Z,23.20
2017-07-06T18:29:31.562Z,23.10
2017-07-06T18:32:00.002Z,23.10
2017-07-06T18:34:28.483Z,22.90
2017-07-06T18:36:57.698Z,22.90
2017-07-06T18:39:26.260Z,22.90
2017-07-06T18:41:54.687Z,22.80
2017-07-06T18:44:23.172Z,22.80
2017-07-06T18:46:51.587Z,22.70
2017-07-06T18:49:20.181Z,22.50
2017-07-06T18:51:48.596Z,22.50
2017-07-06T18:54:17.021Z,22.50
2017-07-06T18:56:45.571Z,22.50
2017-07-06T18:59:14.035Z,22.40
2017-07-06T19:01:42.439Z,22.30
2017-07-06T19:04:10.878Z,22.30
2017-07-06T19:06:40.052Z,22.30
2017-07-06T19:09:08.437Z,22.30
2017-07-06T19:11:38.314Z,22.30
2017-07-06T19:14:06.717Z,22.30
2017-07-06T19:16:35.122Z,22.30
2017-07-06T19:19:10.197Z,22.30
2017-07-06T19:21:38.602Z,22.30
2017-07-06T19:24:07.046Z,22.30
2017-07-06T19:26:35.460Z,22.20
2017-07-06T19:29:03.861Z,22.10
2017-07-06T19:31:34.054Z,22.10
2017-07-06T19:34:02.448Z,22.00
2017-07-06T19:36:31.618Z,21.90
2017-07-06T19:39:00.038Z,21.90
2017-07-06T19:41:28.423Z,22.00
2017-07-06T19:43:57.592Z,22.00
2017-07-06T19:46:26.136Z,22.00
2017-07-06T19:48:54.645Z,21.90
2017-07-06T19:51:23.841Z,21.90
2017-07-06T19:53:52.262Z,21.90
2017-07-06T19:56:20.650Z,21.90
2017-07-06T19:58:49.056Z,21.90
2017-07-06T20:01:17.620Z,22.00
2017-07-06T20:03:46.015Z,21.90
2017-07-06T20:06:14.407Z,21.80
2017-07-06T20:08:42.880Z,21.80
2017-07-06T20:11:11.289Z,21.80
2017-07-06T20:13:40.512Z,21.50
2017-07-06T20:16:08.941Z,21.50
2017-07-06T20:18:37.349Z,21.50
2017-07-06T20:21:06.558Z,21.60
2017-07-06T20:23:34.992Z,21.60
2017-07-06T20:26:03.365Z,21.50
2017-07-06T20:28:32.741Z,21.60
2017-07-06T20:31:01.173Z,21.80
2017-07-06T20:33:29.615Z,21.70
2017-07-06T20:35:58.014Z,21.60
2017-07-06T20:38:26.456Z,21.60
2017-07-06T20:40:54.948Z,21.60
2017-07-06T20:43:23.348Z,21.60
2017-07-06T20:45:51.782Z,21.50
2017-07-06T20:48:20.186Z,21.50
2017-07-06T20:50:48.599Z,21.70
2017-07-06T20:53:17.031Z,21.90
2017-07-06T20:55:45.438Z,21.90
2017-07-06T20:58:13.842Z,21.90
2017-07-06T21:00:42.278Z,21.90
2017-07-06T21:03:10.673Z,21.90
2017-07-06T21:05:39.087Z,21.90
2017-07-06T21:08:08.283Z,21.90
2017-07-06T21:10:36.671Z,21.80
2017-07-06T21:13:05.064Z,21.80
2017-07-06T21:15:33.482Z,21.80
2017-07-06T21:18:01.931Z,21.70
2017-07-06T21:20:30.321Z,21.70
2017-07-06T21:22:58.743Z,21.70
2017-07-06T21:25:27.140Z,21.70
2017-07-06T21:27:55.641Z,21.70
2017-07-06T21:30:24.120Z,21.80
2017-07-06T21:32:52.536Z,21.80
2017-07-06T21:35:20.959Z,21.90
2017-07-06T21:37:49.469Z,22.00
2017-07-06T21:40:17.962Z,22.00
2017-07-06T21:42:46.364Z,22.10
2017-07-06T21:45:15.865Z,22.20
2017-07-06T21:47:44.299Z,22.30
2017-07-06T21:50:12.802Z,22.30
2017-07-06T21:52:41.216Z,22.40
2017-07-06T21:55:09.621Z,22.40
2017-07-06T21:57:38.024Z,22.40
2017-07-06T22:00:06.442Z,22.30
2017-07-06T22:02:34.847Z,22.40
2017-07-06T22:05:03.264Z,22.30
2017-07-06T22:07:31.714Z,22.30
2017-07-06T22:10:00.113Z,22.30
2017-07-06T22:12:28.610Z,22.30
2017-07-06T22:14:57.602Z,22.20
2017-07-06T22:17:26.018Z,22.10
2017-07-06T22:19:54.421Z,22.10
2017-07-06T22:22:22.860Z,22.10
2017-07-06T22:24:51.250Z,22.00
2017-07-06T22:27:19.804Z,22.00
2017-07-06T22:29:48.254Z,22.00
2017-07-06T22:32:16.644Z,22.00
2017-07-06T22:34:45.048Z,22.00
2017-07-06T22:37:13.482Z,21.60
2017-07-06T22:39:41.868Z,21.30
2017-07-06T22:42:10.257Z,21.20
2017-07-06T22:44:38.722Z,21.30
2017-07-06T22:47:07.099Z,21.30
2017-07-06T22:49:35.517Z,21.40
2017-07-06T22:52:04.162Z,21.50
2017-07-06T22:54:32.552Z,21.50
2017-07-06T22:57:01.775Z,21.60
2017-07-06T22:59:30.201Z,21.50
2017-07-06T23:02:00.077Z,21.40
2017-07-06T23:04:28.533Z,21.40
2017-07-06T23:06:56.947Z,21.20
2017-07-06T23:09:25.331Z,20.90
2017-07-06T23:11:53.719Z,20.50
2017-07-06T23:14:22.138Z,20.50
2017-07-06T23:16:50.642Z,20.50
2017-07-06T23:19:19.038Z,20.50
2017-07-06T23:21:47.457Z,20.60
2017-07-06T23:24:15.856Z,20.70
2017-07-06T23:26:44.277Z,20.50
2017-07-06T23:29:12.839Z,20.50
2017-07-06T23:31:41.295Z,20.50
2017-07-06T23:34:09.709Z,20.50
2017-07-06T23:36:38.156Z,20.40
2017-07-06T23:39:06.570Z,20.40
2017-07-06T23:41:35.296Z,20.40
2017-07-06T23:44:03.783Z,20.40
2017-07-06T23:46:32.254Z,20.30
2017-07-06T23:49:01.413Z,20.20
2017-07-06T23:51:29.878Z,20.20
2017-07-06T23:53:58.268Z,20.30
2017-07-06T23:56:26.642Z,20.30
2017-07-06T23:58:55.106Z,20.20
